createdAt,value
2018-11-14T06:11:47.390Z,55.30
2018-11-14T06:14:16.276Z,53.90
2018-11-14T06:19:15.039Z,54.50
2018-11-14T06:21:43.800Z,54.70
2018-11-14T06:24:13.842Z,54.70
2018-11-14T06:26:43.703Z,54.70
2018-11-14T06:29:12.397Z,54.80
2018-11-14T06:31:41.658Z,54.80
2018-11-14T06:34:10.610Z,54.70
2018-11-14T06:36:39.538Z,54.70
2018-11-14T06:39:10.129Z,54.80
2018-11-14T06:41:41.302Z,54.70
2018-11-14T06:44:10.254Z,54.50
2018-11-14T06:46:39.562Z,54.60
2018-11-14T06:49:09.429Z,54.50
2018-11-14T06:51:38.142Z,54.50
2018-11-14T06:54:06.925Z,54.50
2018-11-14T06:56:35.625Z,54.50
2018-11-14T06:59:05.133Z,54.40
2018-11-14T07:01:33.802Z,54.40
2018-11-14T07:04:02.570Z,54.40
2018-11-14T07:06:31.394Z,54.40
2018-11-14T07:09:01.209Z,54.40
2018-11-14T07:11:29.955Z,54.30
2018-11-14T07:13:58.709Z,54.40
2018-11-14T07:16:27.530Z,54.50
2018-11-14T07:18:57.801Z,54.30
2018-11-14T07:21:27.754Z,54.20
2018-11-14T07:24:00.186Z,54.30
2018-11-14T07:26:29.620Z,54.20
2018-11-14T07:28:59.101Z,54.20
2018-11-14T07:31:27.942Z,54.80
2018-11-14T07:33:56.643Z,54.10
2018-11-14T07:36:26.302Z,54.20
2018-11-14T07:38:55.017Z,54.20
2018-11-14T07:41:26.516Z,54.20
2018-11-14T07:43:56.695Z,54.30
2018-11-14T07:46:26.690Z,54.30
2018-11-14T07:48:57.475Z,54.50
2018-11-14T07:51:27.151Z,54.50
2018-11-14T07:53:56.490Z,54.40
2018-11-14T07:56:26.728Z,54.70
2018-11-14T07:58:55.726Z,54.50
2018-11-14T08:01:24.810Z,54.30
2018-11-14T08:06:23.225Z,54.80
2018-11-14T08:08:51.966Z,54.20
2018-11-14T08:11:21.411Z,54.10
2018-11-14T08:13:50.279Z,54.00
2018-11-14T08:16:20.725Z,54.00
2018-11-14T08:18:49.639Z,54.00
2018-11-14T08:21:18.526Z,53.90
2018-11-14T08:23:47.705Z,53.90
2018-11-14T08:26:17.101Z,53.80
2018-11-14T08:28:45.818Z,53.80
2018-11-14T08:31:15.942Z,53.80
2018-11-14T08:33:45.483Z,53.70
2018-11-14T08:36:15.114Z,53.90
2018-11-14T08:38:44.265Z,53.60
2018-11-14T08:41:15.030Z,54.20
2018-11-14T08:43:43.754Z,53.70
2018-11-14T08:46:12.500Z,53.70
2018-11-14T08:48:41.247Z,53.60
2018-11-14T08:51:11.653Z,53.60
2018-11-14T08:53:41.278Z,53.80
2018-11-14T08:56:10.274Z,53.70
2018-11-14T08:58:39.007Z,53.70
2018-11-14T09:01:08.613Z,53.70
2018-11-14T09:06:06.046Z,53.80
2018-11-14T09:08:35.088Z,53.80
2018-11-14T09:11:03.932Z,54.10
2018-11-14T09:13:33.047Z,54.10
2018-11-14T09:16:02.223Z,54.20
2018-11-14T09:18:31.746Z,55.00
2018-11-14T09:21:00.659Z,54.50
2018-11-14T09:23:30.345Z,54.50
2018-11-14T09:25:59.086Z,54.60
2018-11-14T09:28:27.822Z,54.60
2018-11-14T09:30:56.571Z,54.50
2018-11-14T09:33:25.283Z,54.40
2018-11-14T09:35:54.820Z,54.20
2018-11-14T09:38:23.587Z,54.30
2018-11-14T09:40:52.489Z,54.30
2018-11-14T09:43:22.381Z,54.40
2018-11-14T09:45:51.114Z,54.60
2018-11-14T09:48:20.366Z,54.50
2018-11-14T09:50:49.650Z,54.40
2018-11-14T09:53:19.280Z,54.50
2018-11-14T09:55:48.865Z,54.50
2018-11-14T09:58:18.087Z,54.70
2018-11-14T10:03:17.490Z,54.50
2018-11-14T10:08:15.158Z,54.60
2018-11-14T10:10:44.368Z,54.80
2018-11-14T10:13:13.093Z,54.70
2018-11-14T10:15:43.135Z,54.20
2018-11-14T10:18:12.229Z,54.60
2018-11-14T10:20:41.753Z,54.50
2018-11-14T10:23:10.550Z,54.50
2018-11-14T10:25:40.824Z,54.60
2018-11-14T10:28:10.367Z,54.50
2018-11-14T10:30:40.947Z,54.70
2018-11-14T10:33:09.725Z,54.80
2018-11-14T10:35:38.767Z,54.90
2018-11-14T10:38:07.907Z,54.90
2018-11-14T10:40:38.283Z,54.60
2018-11-14T10:43:08.097Z,54.90
2018-11-14T10:45:37.531Z,54.90
2018-11-14T10:48:06.319Z,54.90
2018-11-14T10:50:35.496Z,54.90
2018-11-14T10:53:04.195Z,54.90
2018-11-14T10:55:33.978Z,54.80
2018-11-14T10:58:03.105Z,54.70
2018-11-14T11:00:37.431Z,54.60
2018-11-14T11:03:12.895Z,54.90
2018-11-14T11:05:47.065Z,54.70
2018-11-14T11:08:21.736Z,54.70
2018-11-14T11:10:56.058Z,54.50
2018-11-14T11:13:30.611Z,54.80
2018-11-14T11:16:04.820Z,54.80
2018-11-14T11:18:34.974Z,54.90
2018-11-14T11:21:05.394Z,54.80
2018-11-14T11:23:35.250Z,54.80
2018-11-14T11:26:04.189Z,54.80
2018-11-14T11:28:34.083Z,55.40
2018-11-14T11:31:02.775Z,54.60
2018-11-14T11:33:32.190Z,54.60
2018-11-14T11:36:01.172Z,54.80
2018-11-14T11:38:30.363Z,54.70
2018-11-14T11:40:59.417Z,54.80
2018-11-14T11:43:28.155Z,54.90
2018-11-14T11:45:58.386Z,54.70
2018-11-14T11:48:28.784Z,54.40
2018-11-14T11:50:57.955Z,54.50
2018-11-14T11:53:26.899Z,54.40
2018-11-14T11:55:57.561Z,54.40
2018-11-14T11:58:26.456Z,54.50
2018-11-14T12:00:55.149Z,54.40
2018-11-14T12:03:24.646Z,54.50
2018-11-14T12:05:53.779Z,54.40
2018-11-14T12:08:22.872Z,54.50
2018-11-14T12:10:52.438Z,54.30
2018-11-14T12:13:22.768Z,54.30
2018-11-14T12:15:52.075Z,54.20
2018-11-14T12:18:21.175Z,54.40
2018-11-14T12:20:50.490Z,54.40
2018-11-14T12:23:21.121Z,54.40
2018-11-14T12:25:51.077Z,54.60
2018-11-14T12:28:20.422Z,54.30
2018-11-14T12:30:51.986Z,54.50
2018-11-14T12:33:24.588Z,54.50
2018-11-14T12:35:55.238Z,54.40
2018-11-14T12:38:24.853Z,54.30
2018-11-14T12:40:54.614Z,54.40
2018-11-14T12:43:24.279Z,54.40
2018-11-14T12:45:52.995Z,54.40
2018-11-14T12:48:22.205Z,54.30
2018-11-14T12:50:51.338Z,54.50
2018-11-14T12:53:20.044Z,55.10
2018-11-14T12:55:48.769Z,54.30
2018-11-14T12:58:18.562Z,54.30
2018-11-14T13:00:48.781Z,54.20
2018-11-14T13:03:18.678Z,54.50
2018-11-14T13:05:47.509Z,54.30
2018-11-14T13:08:16.517Z,54.40
2018-11-14T13:10:47.800Z,54.50
2018-11-14T13:13:17.455Z,54.50
2018-11-14T13:15:46.818Z,54.50
2018-11-14T13:18:16.896Z,54.50
2018-11-14T13:20:45.959Z,54.50
2018-11-14T13:23:15.756Z,54.40
2018-11-14T13:25:45.447Z,54.30
2018-11-14T13:28:14.962Z,54.40
2018-11-14T13:30:44.458Z,54.40
2018-11-14T13:33:13.713Z,54.30
2018-11-14T13:35:44.852Z,54.50
2018-11-14T13:38:15.021Z,54.50
2018-11-14T13:40:44.535Z,54.50
2018-11-14T13:43:15.680Z,54.60
2018-11-14T13:45:45.406Z,54.40
2018-11-14T13:48:14.686Z,54.40
2018-11-14T13:50:44.771Z,54.50
2018-11-14T13:53:14.514Z,54.70
2018-11-14T13:55:43.930Z,54.60
2018-11-14T13:58:14.526Z,54.80
2018-11-14T14:00:43.413Z,55.00
2018-11-14T14:03:13.755Z,54.60
2018-11-14T14:05:42.663Z,54.90
2018-11-14T14:08:13.099Z,54.80
2018-11-14T14:10:42.197Z,55.10
2018-11-14T14:13:11.331Z,54.80
2018-11-14T14:15:40.911Z,54.90
2018-11-14T14:18:09.939Z,54.80
2018-11-14T14:20:39.147Z,54.70
2018-11-14T14:23:08.671Z,54.70
2018-11-14T14:25:37.375Z,54.60
2018-11-14T14:28:07.019Z,55.10
2018-11-14T14:30:36.322Z,54.70
2018-11-14T14:33:07.144Z,54.60
2018-11-14T14:35:36.165Z,54.50
2018-11-14T14:38:06.391Z,54.70
2018-11-14T14:40:36.505Z,54.70
2018-11-14T14:43:07.175Z,54.50
2018-11-14T14:45:36.201Z,54.50
2018-11-14T14:48:05.209Z,54.60
2018-11-14T14:50:34.656Z,54.50
2018-11-14T14:53:03.542Z,54.20
2018-11-14T14:55:32.787Z,54.20
2018-11-14T14:58:02.460Z,54.20
2018-11-14T15:00:31.728Z,54.00
2018-11-14T15:03:01.752Z,54.00
2018-11-14T15:05:31.251Z,54.00
2018-11-14T15:08:00.522Z,53.90
2018-11-14T15:10:29.650Z,53.80
2018-11-14T15:13:02.290Z,53.70
2018-11-14T15:15:33.448Z,53.70
2018-11-14T15:18:03.507Z,53.70
2018-11-14T15:20:32.769Z,53.70
2018-11-14T15:23:01.594Z,53.80
2018-11-14T15:25:30.408Z,53.70
2018-11-14T15:27:59.756Z,53.60
2018-11-14T15:30:30.907Z,53.50
2018-11-14T15:33:00.358Z,53.70
2018-11-14T15:35:29.094Z,53.70
2018-11-14T15:37:58.845Z,53.70
2018-11-14T15:40:28.535Z,53.90
2018-11-14T15:42:59.442Z,53.70
2018-11-14T15:45:29.562Z,53.60
2018-11-14T15:47:58.552Z,53.80
2018-11-14T15:50:30.010Z,53.70
2018-11-14T15:52:59.943Z,53.60
2018-11-14T15:55:30.033Z,53.50
2018-11-14T15:58:00.819Z,53.50
2018-11-14T16:00:31.597Z,53.40
2018-11-14T16:03:01.315Z,53.40
2018-11-14T16:05:31.616Z,53.30
2018-11-14T16:08:01.946Z,53.20
2018-11-14T16:10:32.665Z,53.20
2018-11-14T16:13:01.891Z,53.20
2018-11-14T16:15:33.182Z,53.20
2018-11-14T16:18:03.173Z,53.30
2018-11-14T16:20:32.967Z,53.40
2018-11-14T16:23:03.046Z,53.20
2018-11-14T16:25:33.037Z,53.10
2018-11-14T16:28:02.794Z,53.00
2018-11-14T16:30:33.529Z,52.90
2018-11-14T16:33:06.412Z,52.90
2018-11-14T16:35:35.632Z,52.90
2018-11-14T16:40:36.414Z,52.70
2018-11-14T16:43:07.455Z,52.60
2018-11-14T16:45:37.924Z,52.50
2018-11-14T16:48:08.514Z,52.70
2018-11-14T16:50:38.270Z,52.60
2018-11-14T16:53:08.409Z,52.50
2018-11-14T16:55:37.779Z,52.40
2018-11-14T16:58:07.967Z,52.20
2018-11-14T17:00:38.272Z,52.20
2018-11-14T17:03:08.972Z,52.20
2018-11-14T17:05:39.998Z,52.10
2018-11-14T17:08:09.762Z,52.10
2018-11-14T17:10:38.838Z,52.10
2018-11-14T17:13:07.578Z,52.00
2018-11-14T17:15:37.190Z,52.10
2018-11-14T17:18:07.911Z,52.40
2018-11-14T17:20:37.380Z,52.10
2018-11-14T17:23:07.466Z,52.00
2018-11-14T17:25:36.604Z,51.90
2018-11-14T17:28:09.103Z,51.80
2018-11-14T17:30:38.838Z,51.80
2018-11-14T17:33:07.867Z,51.80
2018-11-14T17:35:38.610Z,51.80
2018-11-14T17:38:07.387Z,51.70
2018-11-14T17:40:36.211Z,51.70
2018-11-14T17:43:05.687Z,51.60
2018-11-14T17:45:34.783Z,51.70
2018-11-14T17:48:04.326Z,51.60
2018-11-14T17:50:34.256Z,51.60
2018-11-14T17:53:03.878Z,51.50
2018-11-14T17:55:33.264Z,51.60
2018-11-14T17:58:02.606Z,51.70
2018-11-14T18:00:32.974Z,51.50
2018-11-14T18:03:01.819Z,51.60
2018-11-14T18:05:32.073Z,51.60
2018-11-14T18:08:00.845Z,51.50
2018-11-14T18:10:31.929Z,51.50
2018-11-14T18:13:01.631Z,51.40
2018-11-14T18:15:31.341Z,51.40
2018-11-14T18:18:00.401Z,51.40
2018-11-14T18:20:33.188Z,51.40
2018-11-14T18:23:02.279Z,51.60
2018-11-14T18:25:31.334Z,51.50
2018-11-14T18:28:01.911Z,51.40
2018-11-14T18:30:31.882Z,51.20
2018-11-14T18:33:02.666Z,51.20
2018-11-14T18:35:32.392Z,51.50
2018-11-14T18:38:01.707Z,51.40
2018-11-14T18:40:32.720Z,51.30
2018-11-14T18:43:02.805Z,51.30
2018-11-14T18:45:33.379Z,51.30
2018-11-14T18:48:04.441Z,51.30
2018-11-14T18:50:33.558Z,51.30
2018-11-14T18:53:04.505Z,51.30
2018-11-14T18:55:34.656Z,51.20
2018-11-14T18:58:04.484Z,51.30
2018-11-14T19:00:34.888Z,51.40
2018-11-14T19:03:05.029Z,51.40
2018-11-14T19:05:37.934Z,51.30
2018-11-14T19:08:07.500Z,51.30
2018-11-14T19:10:37.246Z,51.70
2018-11-14T19:13:06.267Z,51.40
2018-11-14T19:15:36.327Z,51.40
2018-11-14T19:18:06.626Z,51.40
2018-11-14T19:23:06.860Z,51.80
2018-11-14T19:25:37.302Z,51.50
2018-11-14T19:28:06.409Z,51.60
2018-11-14T19:30:36.966Z,51.60
2018-11-14T19:33:07.519Z,51.50
2018-11-14T19:35:37.166Z,51.40
2018-11-14T19:38:06.352Z,51.20
2018-11-14T19:40:38.814Z,51.40
2018-11-14T19:43:09.569Z,51.40
2018-11-14T19:45:40.126Z,51.40
2018-11-14T19:48:09.169Z,51.40
2018-11-14T19:50:38.445Z,51.50
2018-11-14T19:53:07.569Z,51.40
2018-11-14T19:55:38.208Z,51.60
2018-11-14T19:58:07.958Z,51.60
2018-11-14T20:03:07.826Z,51.80
2018-11-14T20:05:37.583Z,52.40
2018-11-14T20:08:06.981Z,51.70
2018-11-14T20:10:35.851Z,51.40
2018-11-14T20:13:04.694Z,51.50
2018-11-14T20:15:35.474Z,51.50
2018-11-14T20:18:04.506Z,51.50
2018-11-14T20:20:35.820Z,51.50
2018-11-14T20:23:05.410Z,51.50
2018-11-14T20:25:34.661Z,51.50
2018-11-14T20:28:04.287Z,51.40
2018-11-14T20:30:35.838Z,51.40
2018-11-14T20:33:08.208Z,51.40
2018-11-14T20:35:37.187Z,51.40
2018-11-14T20:38:06.179Z,51.20
2018-11-14T20:40:38.307Z,51.40
2018-11-14T20:43:08.487Z,51.40
2018-11-14T20:45:39.294Z,51.30
2018-11-14T20:48:08.377Z,51.90
2018-11-14T20:50:37.331Z,51.30
2018-11-14T20:53:06.792Z,51.30
2018-11-14T20:55:35.938Z,51.30
2018-11-14T20:58:05.499Z,51.30
2018-11-14T21:00:36.797Z,51.30
2018-11-14T21:03:07.547Z,51.30
2018-11-14T21:05:37.150Z,51.00
2018-11-14T21:08:08.402Z,51.30
2018-11-14T21:10:37.451Z,51.20
2018-11-14T21:13:07.205Z,51.20
2018-11-14T21:15:37.873Z,51.20
2018-11-14T21:18:07.598Z,51.20
2018-11-14T21:20:36.392Z,51.20
2018-11-14T21:23:05.531Z,51.20
2018-11-14T21:25:34.570Z,51.20
2018-11-14T21:28:05.039Z,51.20
2018-11-14T21:30:34.029Z,51.10
2018-11-14T21:33:02.771Z,51.10
2018-11-14T21:35:34.001Z,51.20
2018-11-14T21:38:04.233Z,51.10
2018-11-14T21:40:33.348Z,51.00
2018-11-14T21:43:05.608Z,51.00
2018-11-14T21:45:35.880Z,51.00
2018-11-14T21:48:10.022Z,51.00
2018-11-14T21:50:39.643Z,51.00
2018-11-14T21:53:08.871Z,50.90
2018-11-14T21:55:38.321Z,50.90
